Time;durP1;ratioP1;P1;durP2;ratioP2;P2;SDS_P1;SDS_P2;PMS_P1;PMS_P2;Temp;Humidity;BMP_temperature;BMP_pressure;BME280_temperature;BME280_humidity;BME280_pressure;Samples;Min_cycle;Max_cycle;Signal;HPM_P1;HPM_P2
2023/06/11 00:01:58;;;;;;;0.73;0.70;;;;;;;;;;5046350;28;20092;-91
2023/06/11 00:04:27;;;;;;;2.85;1.75;;;;;;;;;;5047178;28;20146;-89
2023/06/11 00:06:56;;;;;;;1.25;0.93;;;;;;;;;;5052794;28;20029;-91
2023/06/11 00:09:24;;;;;;;1.90;0.95;;;;;;;;;;5051575;28;20683;-89
2023/06/11 00:12:00;;;;;;;1.63;1.17;;;;;;;;;;5052691;28;20060;-90
2023/06/11 00:14:28;;;;;;;1.73;1.30;;;;;;;;;;5049557;28;20029;-89
2023/06/11 00:16:56;;;;;;;2.17;0.95;;;;;;;;;;5065933;28;20032;-91
2023/06/11 00:19:28;;;;;;;1.83;1.05;;;;;;;;;;5046341;28;20028;-89
2023/06/11 00:21:56;;;;;;;2.67;1.77;;;;;;;;;;5043570;28;20060;-89
2023/06/11 00:24:24;;;;;;;0.93;0.70;;;;;;;;;;5044313;28;20039;-88
2023/06/11 00:26:50;;;;;;;1.27;0.93;;;;;;;;;;5044571;28;20112;-90
2023/06/11 00:29:16;;;;;;;5.68;1.20;;;;;;;;;;5049858;28;20067;-89
2023/06/11 00:31:42;;;;;;;1.50;1.17;;;;;;;;;;5033506;28;20041;-89
2023/06/11 00:34:08;;;;;;;0.93;0.85;;;;;;;;;;5034275;28;20047;-90
2023/06/11 00:36:36;;;;;;;1.02;0.75;;;;;;;;;;5064491;28;20041;-90
2023/06/11 00:39:12;;;;;;;0.85;0.60;;;;;;;;;;5041674;28;20052;-92
2023/06/11 00:41:45;;;;;;;1.02;0.90;;;;;;;;;;5040080;28;20033;-90
2023/06/11 00:44:17;;;;;;;1.95;1.17;;;;;;;;;;5038019;28;20078;-89
2023/06/11 00:46:51;;;;;;;1.27;1.17;;;;;;;;;;5053494;28;20025;-90
2023/06/11 00:49:20;;;;;;;2.10;0.75;;;;;;;;;;5034893;28;20029;-91
2023/06/11 00:51:48;;;;;;;1.17;0.88;;;;;;;;;;5052698;28;20566;-88
2023/06/11 00:54:19;;;;;;;1.55;0.88;;;;;;;;;;5055607;28;20033;-89
2023/06/11 00:56:51;;;;;;;1.27;1.13;;;;;;;;;;5038418;28;20036;-89
2023/06/11 00:59:22;;;;;;;1.13;0.90;;;;;;;;;;5038763;28;20028;-89
2023/06/11 01:02:01;;;;;;;1.15;1.05;;;;;;;;;;5052492;28;20044;-88
2023/06/11 01:04:32;;;;;;;1.98;0.95;;;;;;;;;;5038370;28;20032;-90
2023/06/11 01:07:00;;;;;;;1.80;1.13;;;;;;;;;;5035942;28;20033;-88
2023/06/11 01:09:32;;;;;;;0.50;0.43;;;;;;;;;;5035412;28;20037;-89
2023/06/11 01:12:10;;;;;;;1.50;0.93;;;;;;;;;;5036705;28;20071;-89
2023/06/11 01:14:36;;;;;;;2.13;1.70;;;;;;;;;;5035588;28;20025;-90
2023/06/11 01:17:15;;;;;;;1.90;1.05;;;;;;;;;;5054130;28;20029;-89
2023/06/11 01:20:34;;;;;;;1.13;0.63;;;;;;;;;;5033093;28;20040;-90
2023/06/11 01:23:13;;;;;;;2.97;1.05;;;;;;;;;;5047172;28;20040;-89
2023/06/11 01:26:19;;;;;;;2.40;0.93;;;;;;;;;;5069097;28;20025;-87
2023/06/11 01:28:59;;;;;;;1.85;0.90;;;;;;;;;;5034558;28;20037;-91
2023/06/11 01:31:37;;;;;;;2.20;1.13;;;;;;;;;;5037602;28;20024;-90
2023/06/11 01:34:04;;;;;;;1.40;1.25;;;;;;;;;;5036554;28;20505;-91
2023/06/11 01:36:34;;;;;;;1.15;1.05;;;;;;;;;;5042943;28;20044;-90
2023/06/11 01:39:01;;;;;;;2.25;1.08;;;;;;;;;;5055296;28;20031;-89
2023/06/11 01:41:32;;;;;;;1.55;1.10;;;;;;;;;;5074569;28;20031;-90
2023/06/11 01:43:58;;;;;;;0.60;0.60;;;;;;;;;;5048574;28;20024;-89
2023/06/11 01:46:26;;;;;;;0.90;0.82;;;;;;;;;;5057392;28;20036;-90
2023/06/11 01:49:20;;;;;;;0.88;0.82;;;;;;;;;;5058978;28;20036;-90
2023/06/11 01:51:46;;;;;;;1.42;1.10;;;;;;;;;;5061851;28;20051;-91
2023/06/11 01:54:40;;;;;;;0.60;0.60;;;;;;;;;;5057036;28;20025;-91
2023/06/11 01:57:14;;;;;;;1.25;1.05;;;;;;;;;;5074619;28;20093;-90
2023/06/11 01:59:40;;;;;;;1.55;1.23;;;;;;;;;;5054507;28;20033;-88
2023/06/11 02:02:05;;;;;;;1.58;1.30;;;;;;;;;;5073480;28;20028;-88
2023/06/11 02:04:37;;;;;;;2.00;1.42;;;;;;;;;;5072983;28;20032;-90
2023/06/11 02:07:15;;;;;;;1.20;0.70;;;;;;;;;;5055357;28;20116;-88
2023/06/11 02:09:44;;;;;;;2.38;0.93;;;;;;;;;;5058961;28;20024;-88
2023/06/11 02:12:18;;;;;;;8.10;1.23;;;;;;;;;;5057148;28;20085;-88
2023/06/11 02:14:49;;;;;;;0.73;0.60;;;;;;;;;;5052416;28;20273;-89
2023/06/11 02:17:14;;;;;;;1.23;0.80;;;;;;;;;;5057479;28;20028;-89
2023/06/11 02:19:43;;;;;;;1.58;1.05;;;;;;;;;;5055517;28;20518;-90
2023/06/11 02:22:14;;;;;;;0.70;0.70;;;;;;;;;;5056163;28;20147;-90
2023/06/11 02:24:48;;;;;;;1.30;0.98;;;;;;;;;;5054793;28;20119;-90
2023/06/11 02:27:14;;;;;;;1.40;0.93;;;;;;;;;;5052195;28;20031;-89
2023/06/11 02:29:40;;;;;;;1.13;0.80;;;;;;;;;;5058752;28;20032;-90
2023/06/11 02:32:13;;;;;;;1.63;1.00;;;;;;;;;;5057993;28;20404;-90
2023/06/11 02:34:50;;;;;;;1.75;1.13;;;;;;;;;;5075550;28;20028;-90
2023/06/11 02:37:24;;;;;;;1.30;0.77;;;;;;;;;;5048487;28;20044;-91
2023/06/11 02:40:23;;;;;;;1.30;1.05;;;;;;;;;;5060385;28;20132;-92
2023/06/11 02:42:57;;;;;;;1.40;0.80;;;;;;;;;;5077004;28;20036;-90
2023/06/11 02:45:25;;;;;;;0.77;0.63;;;;;;;;;;5092460;28;20048;-90
2023/06/11 02:48:11;;;;;;;1.25;0.88;;;;;;;;;;5056147;28;20086;-87
2023/06/11 02:51:00;;;;;;;1.88;1.02;;;;;;;;;;5053133;28;20028;-89
2023/06/11 02:53:31;;;;;;;1.25;0.85;;;;;;;;;;5053982;28;20434;-92
2023/06/11 02:56:05;;;;;;;0.47;0.40;;;;;;;;;;5052708;28;20033;-90
2023/06/11 02:58:37;;;;;;;3.17;1.50;;;;;;;;;;5053273;28;20040;-91
2023/06/11 03:01:12;;;;;;;1.75;1.42;;;;;;;;;;5051308;28;20067;-91
2023/06/11 03:04:07;;;;;;;0.73;0.70;;;;;;;;;;5055833;28;20035;-90
2023/06/11 03:06:58;;;;;;;12.27;2.63;;;;;;;;;;5054866;28;20044;-90
2023/06/11 03:09:30;;;;;;;1.75;1.35;;;;;;;;;;5053411;28;20036;-91
2023/06/11 03:11:56;;;;;;;1.48;0.88;;;;;;;;;;5075081;28;20020;-89
2023/06/11 03:14:35;;;;;;;1.60;1.17;;;;;;;;;;5056235;28;20058;-92
2023/06/11 03:17:01;;;;;;;1.30;1.02;;;;;;;;;;5056382;28;20033;-91
2023/06/11 03:19:26;;;;;;;0.70;0.45;;;;;;;;;;5056434;28;20040;-90
2023/06/11 03:21:58;;;;;;;0.65;0.57;;;;;;;;;;5075338;28;20468;-93
2023/06/11 03:24:23;;;;;;;0.88;0.77;;;;;;;;;;5076031;28;20473;-91
2023/06/11 03:26:55;;;;;;;0.52;0.52;;;;;;;;;;5094720;28;20089;-92
2023/06/11 03:29:21;;;;;;;0.43;0.40;;;;;;;;;;5055527;28;20055;-89
2023/06/11 03:31:46;;;;;;;2.45;1.25;;;;;;;;;;5054503;28;20028;-87
2023/06/11 03:34:12;;;;;;;6.63;1.33;;;;;;;;;;5053636;28;20456;-91
2023/06/11 03:36:43;;;;;;;6.80;1.60;;;;;;;;;;5052509;28;20060;-90
2023/06/11 03:39:19;;;;;;;0.65;0.65;;;;;;;;;;5050751;28;20031;-91
2023/06/11 03:41:44;;;;;;;1.92;1.10;;;;;;;;;;5056567;28;20120;-90
2023/06/11 03:44:10;;;;;;;1.00;0.77;;;;;;;;;;5057150;28;20056;-88
2023/06/11 03:46:41;;;;;;;1.33;0.73;;;;;;;;;;5056565;28;20041;-91
2023/06/11 03:49:25;;;;;;;0.77;0.70;;;;;;;;;;5047380;28;20024;-90
2023/06/11 03:51:57;;;;;;;0.60;0.50;;;;;;;;;;5059154;28;20040;-88
2023/06/11 03:54:23;;;;;;;1.05;0.75;;;;;;;;;;5055371;28;20123;-90
2023/06/11 03:56:57;;;;;;;1.95;0.85;;;;;;;;;;5058926;28;20112;-93
2023/06/11 04:05:59;;;;;;;2.35;0.95;;;;;;;;;;5057585;28;20055;-91
2023/06/11 04:11:56;;;;;;;6.43;1.27;;;;;;;;;;5081107;28;20059;-91
2023/06/11 04:14:35;;;;;;;1.88;1.65;;;;;;;;;;5061147;28;20055;-90
2023/06/11 04:17:03;;;;;;;1.15;1.05;;;;;;;;;;5073551;28;20051;-89
2023/06/11 04:19:30;;;;;;;1.38;1.02;;;;;;;;;;5062279;28;20484;-90
2023/06/11 04:21:59;;;;;;;2.38;1.15;;;;;;;;;;5078209;28;20105;-91
2023/06/11 04:24:27;;;;;;;1.27;1.02;;;;;;;;;;5052488;28;20032;-90
2023/06/11 04:26:53;;;;;;;1.27;1.17;;;;;;;;;;5057127;28;20048;-90
2023/06/11 04:29:23;;;;;;;1.73;1.17;;;;;;;;;;5071944;28;20028;-90
2023/06/11 04:32:16;;;;;;;0.80;0.63;;;;;;;;;;5056589;28;20119;-90
2023/06/11 04:35:49;;;;;;;1.45;1.35;;;;;;;;;;5062551;28;20119;-91
2023/06/11 04:38:08;;;;;;;1.67;1.13;;;;;;;;;;5032040;28;20047;-86
2023/06/11 04:40:34;;;;;;;1.33;0.98;;;;;;;;;;5052081;28;20025;-86
2023/06/11 04:43:00;;;;;;;1.23;0.90;;;;;;;;;;5054671;28;20522;-84
2023/06/11 04:45:26;;;;;;;2.50;1.23;;;;;;;;;;5054034;28;20046;-86
2023/06/11 04:47:54;;;;;;;1.17;0.82;;;;;;;;;;5056231;28;20373;-85
2023/06/11 04:50:28;;;;;;;1.00;0.90;;;;;;;;;;5051982;28;20055;-89
2023/06/11 04:53:01;;;;;;;3.28;1.63;;;;;;;;;;5055027;28;20095;-85
2023/06/11 04:55:27;;;;;;;1.77;1.00;;;;;;;;;;5047357;28;20029;-87
2023/06/11 04:57:55;;;;;;;1.73;1.10;;;;;;;;;;5058622;28;20031;-85
2023/06/11 05:00:30;;;;;;;;;;;;;;;;;;;;;
2023/06/11 05:03:01;;;;;;;2.38;1.30;;;;;;;;;;5067601;28;20376;-86
2023/06/11 05:05:27;;;;;;;2.03;1.25;;;;;;;;;;5065764;28;20074;-86
2023/06/11 05:07:52;;;;;;;1.48;0.93;;;;;;;;;;5071779;28;20441;-86
2023/06/11 05:10:18;;;;;;;1.27;0.88;;;;;;;;;;5072545;28;20025;-87
2023/06/11 05:12:43;;;;;;;1.75;1.35;;;;;;;;;;5052592;28;20578;-86
2023/06/11 05:15:09;;;;;;;1.17;1.05;;;;;;;;;;5053924;28;20028;-86
2023/06/11 05:17:38;;;;;;;1.58;1.38;;;;;;;;;;5069966;28;20484;-87
2023/06/11 05:20:05;;;;;;;3.00;1.45;;;;;;;;;;5053739;28;20038;-86
2023/06/11 05:22:30;;;;;;;2.35;1.83;;;;;;;;;;5053730;28;20124;-86
2023/06/11 05:24:56;;;;;;;2.05;1.38;;;;;;;;;;5055041;28;20111;-86
2023/06/11 05:27:23;;;;;;;11.02;1.40;;;;;;;;;;5072676;28;20039;-86
2023/06/11 05:29:48;;;;;;;1.23;1.10;;;;;;;;;;5069940;28;20020;-87
2023/06/11 05:32:14;;;;;;;2.45;1.65;;;;;;;;;;5051967;28;20039;-86
2023/06/11 05:34:40;;;;;;;2.03;1.38;;;;;;;;;;5084656;28;20028;-88
2023/06/11 05:37:06;;;;;;;2.28;1.58;;;;;;;;;;5070795;28;20037;-87
2023/06/11 05:39:31;;;;;;;4.05;1.50;;;;;;;;;;5071648;28;20484;-88
2023/06/11 05:41:57;;;;;;;1.77;1.35;;;;;;;;;;5053356;28;20110;-86
2023/06/11 05:44:22;;;;;;;1.67;1.05;;;;;;;;;;5071777;28;20024;-86
2023/06/11 05:46:48;;;;;;;1.10;1.00;;;;;;;;;;5052667;28;20040;-86
2023/06/11 05:49:13;;;;;;;2.53;1.60;;;;;;;;;;5050563;28;20032;-89
2023/06/11 05:51:39;;;;;;;1.88;1.20;;;;;;;;;;5068029;28;20103;-85
2023/06/11 05:54:05;;;;;;;1.55;1.05;;;;;;;;;;5069870;28;20020;-85
2023/06/11 05:56:30;;;;;;;1.33;1.15;;;;;;;;;;5051688;28;20025;-84
2023/06/11 05:58:56;;;;;;;2.35;1.50;;;;;;;;;;5066388;28;20026;-84
2023/06/11 06:01:24;;;;;;;1.60;1.15;;;;;;;;;;5065639;28;20036;-84
2023/06/11 06:03:50;;;;;;;2.38;1.35;;;;;;;;;;5070381;28;20025;-84
2023/06/11 06:06:15;;;;;;;1.75;1.27;;;;;;;;;;5073563;28;20032;-83
2023/06/11 06:08:41;;;;;;;1.77;1.60;;;;;;;;;;5071730;28;20415;-85
2023/06/11 06:11:06;;;;;;;2.38;1.70;;;;;;;;;;5052906;28;20060;-84
2023/06/11 06:13:32;;;;;;;13.60;1.70;;;;;;;;;;5053984;28;20127;-84
2023/06/11 06:15:57;;;;;;;2.13;1.20;;;;;;;;;;5071461;28;20024;-84
2023/06/11 06:18:23;;;;;;;1.83;1.15;;;;;;;;;;5070620;28;20044;-84
2023/06/11 06:20:48;;;;;;;1.60;1.30;;;;;;;;;;5069356;28;20024;-85
2023/06/11 06:23:13;;;;;;;1.48;1.13;;;;;;;;;;5063445;28;20481;-84
2023/06/11 06:25:41;;;;;;;2.80;1.15;;;;;;;;;;5046907;28;20172;-84
2023/06/11 06:28:06;;;;;;;1.75;1.08;;;;;;;;;;5070865;28;20109;-84
2023/06/11 06:30:33;;;;;;;2.20;1.67;;;;;;;;;;5063806;28;20033;-84
2023/06/11 06:32:59;;;;;;;1.23;0.75;;;;;;;;;;5049953;28;20060;-84
2023/06/11 06:35:25;;;;;;;4.10;1.70;;;;;;;;;;5067925;28;20551;-84
2023/06/11 06:37:51;;;;;;;2.15;1.40;;;;;;;;;;5065109;28;20040;-84
2023/06/11 06:40:16;;;;;;;2.35;1.52;;;;;;;;;;5047832;28;20028;-83
2023/06/11 06:42:42;;;;;;;2.25;1.70;;;;;;;;;;5065713;28;20032;-88
2023/06/11 06:45:08;;;;;;;2.65;1.52;;;;;;;;;;5042036;28;20036;-86
2023/06/11 06:47:34;;;;;;;3.45;1.35;;;;;;;;;;5063778;28;20035;-89
2023/06/11 06:49:59;;;;;;;1.85;1.42;;;;;;;;;;5067056;28;20395;-90
2023/06/11 06:52:25;;;;;;;2.67;1.50;;;;;;;;;;5052519;28;20073;-88
2023/06/11 06:54:51;;;;;;;1.98;1.50;;;;;;;;;;5053822;28;20195;-84
2023/06/11 06:57:17;;;;;;;3.10;1.63;;;;;;;;;;5050482;28;20020;-84
2023/06/11 06:59:43;;;;;;;1.98;1.60;;;;;;;;;;5054280;28;20036;-86
2023/06/11 07:02:09;;;;;;;3.08;1.70;;;;;;;;;;5062026;28;20052;-86
2023/06/11 07:04:35;;;;;;;1.48;1.00;;;;;;;;;;5060686;28;20033;-84
2023/06/11 07:07:00;;;;;;;2.90;1.60;;;;;;;;;;5066139;28;20694;-87
2023/06/11 07:09:25;;;;;;;13.18;1.67;;;;;;;;;;5068995;28;20024;-86
2023/06/11 07:11:52;;;;;;;1.25;1.02;;;;;;;;;;5061906;28;20024;-85
2023/06/11 07:14:19;;;;;;;3.30;1.00;;;;;;;;;;5068445;28;20444;-83
2023/06/11 07:16:45;;;;;;;1.42;1.20;;;;;;;;;;5064889;28;20061;-85
2023/06/11 07:19:10;;;;;;;2.05;1.15;;;;;;;;;;5067652;28;20049;-84
2023/06/11 07:21:37;;;;;;;2.97;1.85;;;;;;;;;;5055076;28;20028;-86
2023/06/11 07:24:07;;;;;;;2.25;1.15;;;;;;;;;;5074699;28;20024;-84
2023/06/11 07:26:33;;;;;;;1.88;1.35;;;;;;;;;;5056035;28;20036;-84
2023/06/11 07:28:59;;;;;;;1.98;1.42;;;;;;;;;;5048447;28;20025;-83
2023/06/11 07:31:25;;;;;;;2.13;1.55;;;;;;;;;;5053891;28;20361;-85
2023/06/11 07:33:50;;;;;;;1.77;1.40;;;;;;;;;;5069578;28;20024;-86
2023/06/11 07:36:16;;;;;;;1.58;1.27;;;;;;;;;;5076260;28;20495;-87
2023/06/11 07:38:45;;;;;;;2.53;1.40;;;;;;;;;;5053995;28;20037;-86
2023/06/11 07:41:12;;;;;;;1.13;0.85;;;;;;;;;;5052602;28;20032;-85
2023/06/11 07:43:38;;;;;;;2.20;1.52;;;;;;;;;;5054363;28;20032;-88
2023/06/11 07:46:03;;;;;;;3.70;1.58;;;;;;;;;;5035743;28;20385;-84
2023/06/11 07:48:30;;;;;;;2.15;1.45;;;;;;;;;;5035983;28;20102;-84
2023/06/11 07:50:56;;;;;;;2.47;1.45;;;;;;;;;;5051712;28;20036;-83
2023/06/11 07:53:22;;;;;;;2.65;1.65;;;;;;;;;;5053819;28;20025;-85
2023/06/11 07:55:50;;;;;;;2.78;1.75;;;;;;;;;;5036645;28;20036;-86
2023/06/11 07:58:18;;;;;;;1.73;1.30;;;;;;;;;;5034176;28;20063;-88
2023/06/11 08:00:43;;;;;;;3.15;1.63;;;;;;;;;;5034515;28;20439;-86
2023/06/11 08:03:09;;;;;;;1.48;1.20;;;;;;;;;;5033941;28;20029;-83
2023/06/11 08:05:34;;;;;;;2.35;1.38;;;;;;;;;;5034095;28;20178;-88
2023/06/11 08:08:00;;;;;;;3.53;1.80;;;;;;;;;;5035595;28;20138;-87
2023/06/11 08:10:25;;;;;;;1.85;1.42;;;;;;;;;;5054469;28;20060;-86
2023/06/11 08:12:51;;;;;;;1.83;1.25;;;;;;;;;;5054483;28;20029;-85
2023/06/11 08:15:17;;;;;;;1.52;1.38;;;;;;;;;;5053185;28;20029;-85
2023/06/11 08:17:43;;;;;;;1.45;1.17;;;;;;;;;;5052810;28;20487;-86
2023/06/11 08:20:09;;;;;;;1.60;1.33;;;;;;;;;;5051351;28;20052;-85
2023/06/11 08:22:34;;;;;;;1.10;0.93;;;;;;;;;;5050823;28;20036;-85
2023/06/11 08:25:00;;;;;;;1.77;1.23;;;;;;;;;;5033541;28;20036;-86
2023/06/11 08:27:25;;;;;;;2.35;1.42;;;;;;;;;;5052942;28;20025;-85
2023/06/11 08:29:51;;;;;;;1.60;1.13;;;;;;;;;;5051464;28;20120;-86
2023/06/11 08:32:16;;;;;;;2.28;1.70;;;;;;;;;;5051879;28;20116;-89
2023/06/11 08:34:42;;;;;;;1.45;1.10;;;;;;;;;;5049559;28;20052;-86
2023/06/11 08:37:07;;;;;;;2.17;1.52;;;;;;;;;;5056971;28;20399;-85
2023/06/11 08:39:32;;;;;;;2.50;1.50;;;;;;;;;;5071541;28;20110;-88
2023/06/11 08:41:58;;;;;;;1.70;1.58;;;;;;;;;;5054232;28;20041;-86
2023/06/11 08:44:23;;;;;;;2.17;1.45;;;;;;;;;;5071223;28;20028;-88
2023/06/11 08:46:49;;;;;;;1.75;1.33;;;;;;;;;;5069019;28;20068;-86
2023/06/11 08:49:23;;;;;;;2.42;1.30;;;;;;;;;;5073011;28;20035;-87
2023/06/11 08:51:49;;;;;;;2.00;1.17;;;;;;;;;;5054306;28;20052;-85
2023/06/11 08:54:16;;;;;;;1.63;1.38;;;;;;;;;;5052252;28;20041;-84
2023/06/11 08:56:43;;;;;;;2.38;1.63;;;;;;;;;;5071191;28;20104;-85
2023/06/11 08:59:08;;;;;;;1.23;0.93;;;;;;;;;;5069931;28;20503;-86
2023/06/11 09:01:34;;;;;;;1.20;1.08;;;;;;;;;;5053329;28;20028;-86
2023/06/11 09:04:00;;;;;;;1.42;1.00;;;;;;;;;;5069668;28;20063;-85
2023/06/11 09:06:26;;;;;;;1.73;1.35;;;;;;;;;;5068793;28;20032;-86
2023/06/11 09:09:01;;;;;;;0.68;0.60;;;;;;;;;;5052485;28;20032;-87
2023/06/11 09:11:34;;;;;;;1.00;0.90;;;;;;;;;;5069573;28;20063;-87
2023/06/11 09:14:00;;;;;;;0.82;0.60;;;;;;;;;;5071443;28;20028;-84
2023/06/11 09:16:25;;;;;;;1.75;1.33;;;;;;;;;;5070804;28;20381;-86
2023/06/11 09:18:51;;;;;;;1.45;1.10;;;;;;;;;;5070996;28;20099;-88
2023/06/11 09:21:17;;;;;;;1.05;0.95;;;;;;;;;;5053852;28;20032;-86
2023/06/11 09:23:45;;;;;;;2.67;1.42;;;;;;;;;;5071304;28;20449;-86
2023/06/11 09:26:15;;;;;;;1.88;1.23;;;;;;;;;;5053909;28;20499;-91
2023/06/11 09:28:41;;;;;;;1.55;1.10;;;;;;;;;;5050532;28;20032;-90
2023/06/11 09:31:06;;;;;;;0.93;0.85;;;;;;;;;;5071735;28;20378;-89
2023/06/11 09:33:42;;;;;;;1.90;1.45;;;;;;;;;;5050194;28;20033;-87
2023/06/11 09:36:08;;;;;;;2.15;1.52;;;;;;;;;;5070114;28;20033;-87
2023/06/11 09:38:34;;;;;;;0.95;0.90;;;;;;;;;;5052380;28;20120;-88
2023/06/11 09:41:03;;;;;;;4.35;1.52;;;;;;;;;;5053547;28;20381;-89
2023/06/11 09:43:31;;;;;;;1.93;1.47;;;;;;;;;;5052472;28;20123;-85
2023/06/11 09:45:56;;;;;;;0.70;0.70;;;;;;;;;;5055561;28;20028;-87
2023/06/11 09:48:28;;;;;;;5.28;1.70;;;;;;;;;;5072178;28;20040;-85
2023/06/11 09:50:54;;;;;;;2.15;1.00;;;;;;;;;;5052379;28;20021;-85
2023/06/11 09:53:23;;;;;;;2.90;1.52;;;;;;;;;;5074128;28;20429;-89
2023/06/11 09:55:50;;;;;;;;;;;;;;;;;;5052731;28;20123;-86
2023/06/11 09:58:22;;;;;;;1.45;0.82;;;;;;;;;;5054067;28;20403;-87
2023/06/11 10:00:49;;;;;;;1.73;1.58;;;;;;;;;;5075992;28;20070;-88
2023/06/11 10:03:15;;;;;;;2.03;1.73;;;;;;;;;;5053141;28;20487;-83
2023/06/11 10:05:40;;;;;;;2.78;1.88;;;;;;;;;;5046350;28;20028;-85
2023/06/11 10:08:17;;;;;;;1.45;1.35;;;;;;;;;;5078865;28;20033;-85
2023/06/11 10:10:45;;;;;;;1.48;1.20;;;;;;;;;;5056388;28;20127;-85
2023/06/11 10:13:11;;;;;;;2.92;1.75;;;;;;;;;;5072723;28;20493;-85
2023/06/11 10:15:37;;;;;;;1.98;1.50;;;;;;;;;;5072581;28;20098;-83
2023/06/11 10:18:13;;;;;;;2.13;1.42;;;;;;;;;;5052747;28;20147;-86
2023/06/11 10:20:51;;;;;;;2.40;1.55;;;;;;;;;;5073123;28;20032;-85
2023/06/11 10:23:18;;;;;;;2.65;1.52;;;;;;;;;;5072217;28;20427;-86
2023/06/11 10:25:52;;;;;;;1.83;1.42;;;;;;;;;;5053542;28;20119;-88
2023/06/11 10:28:17;;;;;;;1.10;1.00;;;;;;;;;;5053497;28;20366;-85
2023/06/11 10:31:26;;;;;;;2.10;1.60;;;;;;;;;;5054348;28;20031;-84
2023/06/11 10:33:52;;;;;;;1.33;1.23;;;;;;;;;;5043215;28;20086;-85
2023/06/11 10:36:24;;;;;;;2.58;1.67;;;;;;;;;;5073479;28;20028;-84
2023/06/11 10:39:20;;;;;;;1.67;1.35;;;;;;;;;;5052974;28;20024;-86
2023/06/11 10:41:58;;;;;;;1.85;1.38;;;;;;;;;;5051159;28;20027;-86
2023/06/11 10:44:27;;;;;;;2.00;1.60;;;;;;;;;;5056256;28;20036;-89
2023/06/11 10:46:54;;;;;;;1.98;1.52;;;;;;;;;;5048598;28;20032;-86
2023/06/11 10:49:26;;;;;;;1.77;1.60;;;;;;;;;;5051314;28;20431;-87
2023/06/11 10:51:52;;;;;;;2.38;1.45;;;;;;;;;;5073211;28;20028;-84
2023/06/11 10:54:26;;;;;;;1.55;1.30;;;;;;;;;;5072027;28;20468;-88
2023/06/11 10:56:52;;;;;;;1.88;1.20;;;;;;;;;;5053748;28;20020;-87
2023/06/11 10:59:18;;;;;;;1.10;0.98;;;;;;;;;;5072326;28;20025;-88
2023/06/11 11:01:44;;;;;;;0.90;0.70;;;;;;;;;;5070819;28;20077;-85
2023/06/11 11:04:12;;;;;;;1.35;1.15;;;;;;;;;;5069655;28;20143;-87
2023/06/11 11:06:43;;;;;;;1.88;1.40;;;;;;;;;;5049034;28;20052;-84
2023/06/11 11:09:09;;;;;;;4.50;2.00;;;;;;;;;;5055602;28;20032;-85
2023/06/11 11:11:35;;;;;;;1.95;1.65;;;;;;;;;;5053646;28;20096;-83
2023/06/11 11:14:01;;;;;;;1.92;1.00;;;;;;;;;;5073439;28;20028;-85
2023/06/11 11:16:26;;;;;;;2.08;1.00;;;;;;;;;;5087053;28;20024;-85
2023/06/11 11:18:52;;;;;;;1.52;1.20;;;;;;;;;;5055890;28;20031;-86
2023/06/11 11:21:18;;;;;;;1.20;0.98;;;;;;;;;;5071402;28;20261;-88
2023/06/11 11:23:48;;;;;;;4.40;1.67;;;;;;;;;;5073730;28;20032;-83
2023/06/11 11:26:16;;;;;;;1.70;1.10;;;;;;;;;;5070889;28;20098;-85
2023/06/11 11:28:42;;;;;;;2.47;1.75;;;;;;;;;;5068801;28;20106;-86
2023/06/11 11:31:10;;;;;;;2.83;1.60;;;;;;;;;;5066700;28;20033;-83
2023/06/11 11:33:38;;;;;;;2.00;1.40;;;;;;;;;;5052050;28;20056;-84
2023/06/11 11:36:04;;;;;;;0.93;0.75;;;;;;;;;;5064057;28;20087;-83
2023/06/11 11:38:35;;;;;;;4.60;1.70;;;;;;;;;;5047319;28;20396;-83
2023/06/11 11:41:01;;;;;;;2.05;1.33;;;;;;;;;;5051964;28;20381;-84
2023/06/11 11:43:48;;;;;;;2.58;1.67;;;;;;;;;;5068935;28;20451;-84
2023/06/11 11:46:18;;;;;;;2.33;1.50;;;;;;;;;;5063209;28;20086;-83
2023/06/11 11:48:44;;;;;;;2.15;1.20;;;;;;;;;;5050216;28;20024;-85
2023/06/11 11:51:13;;;;;;;1.85;1.60;;;;;;;;;;5069378;28;20385;-85
2023/06/11 11:53:40;;;;;;;1.33;1.00;;;;;;;;;;5068343;28;20028;-86
2023/06/11 11:56:06;;;;;;;1.95;1.48;;;;;;;;;;5051129;28;20780;-86
2023/06/11 11:58:44;;;;;;;1.13;1.02;;;;;;;;;;5069172;28;20073;-84
2023/06/11 12:01:21;;;;;;;1.23;1.00;;;;;;;;;;5052065;28;20048;-86
2023/06/11 12:04:03;;;;;;;2.70;1.48;;;;;;;;;;5049110;28;20036;-85
2023/06/11 12:06:30;;;;;;;4.30;1.48;;;;;;;;;;5056150;28;20416;-84
2023/06/11 12:08:55;;;;;;;2.47;1.40;;;;;;;;;;5073702;28;20048;-86
2023/06/11 12:11:21;;;;;;;1.73;1.13;;;;;;;;;;5053720;28;20468;-85
2023/06/11 12:13:47;;;;;;;1.80;1.23;;;;;;;;;;5073267;28;20031;-84
2023/06/11 12:16:14;;;;;;;1.23;0.82;;;;;;;;;;5071734;28;20025;-86
2023/06/11 12:18:40;;;;;;;1.30;1.00;;;;;;;;;;5067662;28;20035;-83
2023/06/11 12:21:07;;;;;;;1.80;1.38;;;;;;;;;;5073846;28;20392;-86
2023/06/11 12:23:35;;;;;;;1.58;1.13;;;;;;;;;;5073074;28;20020;-87
2023/06/11 12:26:01;;;;;;;1.77;1.13;;;;;;;;;;5072531;28;20048;-84
2023/06/11 12:28:27;;;;;;;1.80;1.10;;;;;;;;;;5072097;28;20473;-83
2023/06/11 12:30:52;;;;;;;1.92;1.00;;;;;;;;;;5054381;28;20037;-85
2023/06/11 12:33:18;;;;;;;2.05;1.85;;;;;;;;;;5054205;28;20040;-85
2023/06/11 12:35:43;;;;;;;2.05;1.10;;;;;;;;;;5072199;28;20081;-86
2023/06/11 12:38:10;;;;;;;1.00;0.90;;;;;;;;;;5072003;28;21735;-85
2023/06/11 12:40:36;;;;;;;0.80;0.80;;;;;;;;;;5069415;28;20151;-84
2023/06/11 12:43:02;;;;;;;1.75;1.40;;;;;;;;;;5066437;28;20472;-86
2023/06/11 12:45:30;;;;;;;1.77;1.27;;;;;;;;;;5071668;28;20028;-83
2023/06/11 12:47:56;;;;;;;1.88;1.20;;;;;;;;;;5072681;28;20089;-87
2023/06/11 12:50:24;;;;;;;1.77;1.20;;;;;;;;;;5072789;28;20020;-85
2023/06/11 12:52:49;;;;;;;1.10;0.73;;;;;;;;;;5072291;28;20032;-83
2023/06/11 12:55:15;;;;;;;1.75;1.10;;;;;;;;;;5072708;28;20031;-84
2023/06/11 12:57:40;;;;;;;1.17;0.70;;;;;;;;;;5072259;28;20021;-81
2023/06/11 13:00:08;;;;;;;1.60;0.95;;;;;;;;;;5065495;28;20097;-83
2023/06/11 13:02:34;;;;;;;1.33;0.88;;;;;;;;;;5072542;28;20461;-81
2023/06/11 13:04:59;;;;;;;1.65;0.95;;;;;;;;;;5072918;28;20031;-84
2023/06/11 13:07:25;;;;;;;1.45;1.05;;;;;;;;;;5072061;28;20028;-82
2023/06/11 13:09:51;;;;;;;1.77;1.40;;;;;;;;;;5083648;28;20128;-82
2023/06/11 13:12:18;;;;;;;1.75;1.20;;;;;;;;;;5072231;28;20032;-83
2023/06/11 13:14:43;;;;;;;1.92;1.27;;;;;;;;;;5072078;28;20044;-83
2023/06/11 13:17:09;;;;;;;1.13;1.00;;;;;;;;;;5070837;28;20020;-82
2023/06/11 13:19:35;;;;;;;1.40;0.98;;;;;;;;;;5072813;28;20044;-82
2023/06/11 13:22:00;;;;;;;2.10;1.15;;;;;;;;;;5071889;28;20103;-84
2023/06/11 13:24:26;;;;;;;3.25;1.27;;;;;;;;;;5073972;28;20039;-83
2023/06/11 13:26:52;;;;;;;4.35;1.45;;;;;;;;;;5071062;28;20021;-83
2023/06/11 13:29:19;;;;;;;0.95;0.90;;;;;;;;;;5067990;28;20023;-83
2023/06/11 13:31:45;;;;;;;0.85;0.70;;;;;;;;;;5071858;28;20027;-82
2023/06/11 13:34:11;;;;;;;5.60;1.20;;;;;;;;;;5069030;28;20025;-82
2023/06/11 13:36:36;;;;;;;1.38;1.05;;;;;;;;;;5070176;28;20519;-84
2023/06/11 13:39:03;;;;;;;1.23;0.90;;;;;;;;;;5065484;28;20024;-81
2023/06/11 13:41:29;;;;;;;2.05;1.23;;;;;;;;;;5053309;28;20468;-82
2023/06/11 13:43:55;;;;;;;2.13;1.35;;;;;;;;;;5069977;28;20082;-83
2023/06/11 13:46:21;;;;;;;1.00;0.77;;;;;;;;;;5070313;28;20124;-83
2023/06/11 13:48:46;;;;;;;0.85;0.73;;;;;;;;;;5072044;28;20024;-84
2023/06/11 13:51:12;;;;;;;1.80;1.50;;;;;;;;;;5070290;28;20535;-83
2023/06/11 13:53:37;;;;;;;1.27;0.90;;;;;;;;;;5069809;28;20025;-84
2023/06/11 13:56:04;;;;;;;1.85;1.20;;;;;;;;;;5071518;28;20048;-82
2023/06/11 13:58:29;;;;;;;2.38;1.10;;;;;;;;;;5071454;28;20028;-84
2023/06/11 14:00:55;;;;;;;2.58;1.60;;;;;;;;;;5070940;28;20086;-83
2023/06/11 14:03:21;;;;;;;1.35;1.05;;;;;;;;;;5068479;28;20050;-83
2023/06/11 14:05:46;;;;;;;2.53;1.35;;;;;;;;;;5069686;28;20107;-86
2023/06/11 14:08:17;;;;;;;0.95;0.82;;;;;;;;;;5067860;28;20028;-86
2023/06/11 14:10:46;;;;;;;1.02;0.70;;;;;;;;;;5068235;28;20370;-86
2023/06/11 14:13:11;;;;;;;1.13;0.85;;;;;;;;;;5053309;28;20028;-86
2023/06/11 14:15:37;;;;;;;1.25;0.82;;;;;;;;;;5071332;28;20036;-84
2023/06/11 14:18:02;;;;;;;2.78;1.50;;;;;;;;;;5071175;28;20025;-83
2023/06/11 14:20:28;;;;;;;1.58;0.90;;;;;;;;;;5070895;28;20086;-81
2023/06/11 14:22:54;;;;;;;1.15;0.77;;;;;;;;;;5069890;28;20032;-82
2023/06/11 14:25:19;;;;;;;1.73;1.33;;;;;;;;;;5055787;28;20107;-81
2023/06/11 14:27:45;;;;;;;1.58;0.93;;;;;;;;;;5066744;28;20039;-83
2023/06/11 14:30:11;;;;;;;1.40;0.95;;;;;;;;;;5070398;28;20475;-83
2023/06/11 14:32:36;;;;;;;1.23;0.90;;;;;;;;;;5070424;28;20051;-83
2023/06/11 14:35:02;;;;;;;1.08;0.93;;;;;;;;;;5070663;28;20625;-84
2023/06/11 14:37:28;;;;;;;1.95;1.35;;;;;;;;;;5055695;28;20053;-82
2023/06/11 14:39:53;;;;;;;1.02;0.63;;;;;;;;;;5047245;28;20036;-83
2023/06/11 14:42:19;;;;;;;1.30;0.95;;;;;;;;;;5046135;28;20243;-82
2023/06/11 14:44:46;;;;;;;1.38;1.15;;;;;;;;;;5050965;28;20109;-83
2023/06/11 14:47:11;;;;;;;1.38;0.90;;;;;;;;;;5050916;28;20385;-85
2023/06/11 14:49:37;;;;;;;1.25;0.80;;;;;;;;;;5050743;28;20027;-83
2023/06/11 14:52:08;;;;;;;1.92;1.48;;;;;;;;;;5051500;28;20040;-85
2023/06/11 14:54:35;;;;;;;1.63;1.20;;;;;;;;;;5049217;28;20098;-83
2023/06/11 14:57:18;;;;;;;1.48;1.00;;;;;;;;;;5049686;28;20536;-84
2023/06/11 14:59:44;;;;;;;1.40;1.15;;;;;;;;;;5049390;28;20032;-82
2023/06/11 15:02:13;;;;;;;1.92;0.90;;;;;;;;;;5051030;28;20485;-83
2023/06/11 15:04:39;;;;;;;0.95;0.80;;;;;;;;;;5050805;28;20112;-82